createdAt,value
2024-03-10T00:00:22.465Z,29.27
2024-03-10T00:02:49.948Z,28.90
2024-03-10T00:05:16.986Z,28.97
2024-03-10T00:07:44.990Z,30.40
2024-03-10T00:10:13.717Z,31.67
2024-03-10T00:12:40.551Z,30.37
2024-03-10T00:15:08.126Z,28.50
2024-03-10T00:17:36.870Z,31.43
2024-03-10T00:20:05.029Z,30.53
2024-03-10T00:22:32.010Z,29.47
2024-03-10T00:24:58.841Z,30.67
2024-03-10T00:27:25.809Z,32.00
2024-03-10T00:29:53.055Z,30.30
2024-03-10T00:32:19.772Z,27.87
2024-03-10T00:34:46.521Z,27.97
2024-03-10T00:37:13.309Z,28.00
2024-03-10T00:39:39.942Z,29.90
2024-03-10T00:42:07.250Z,27.73
2024-03-10T00:44:34.029Z,30.70
2024-03-10T00:47:00.819Z,27.60
2024-03-10T00:49:27.592Z,32.17
2024-03-10T00:51:54.289Z,31.50
2024-03-10T00:54:21.898Z,27.17
2024-03-10T00:56:48.942Z,29.77
2024-03-10T00:59:17.262Z,27.70
2024-03-10T01:01:44.269Z,30.27
2024-03-10T01:04:11.146Z,27.53
2024-03-10T01:06:38.260Z,28.30
2024-03-10T01:09:09.728Z,31.07
2024-03-10T01:11:49.610Z,29.63
2024-03-10T01:14:16.459Z,29.57
2024-03-10T01:16:43.309Z,27.03
2024-03-10T01:19:10.539Z,28.40
2024-03-10T01:21:37.479Z,28.57
2024-03-10T01:24:07.558Z,30.33
2024-03-10T01:26:35.421Z,28.70
2024-03-10T01:29:02.796Z,28.13
2024-03-10T01:31:29.765Z,29.27
2024-03-10T01:33:56.570Z,29.40
2024-03-10T01:36:23.547Z,29.13
2024-03-10T01:38:50.285Z,32.83
2024-03-10T01:41:17.048Z,29.47
2024-03-10T01:43:48.482Z,27.57
2024-03-10T01:46:16.608Z,26.97
2024-03-10T01:48:45.118Z,28.00
2024-03-10T01:51:14.391Z,27.87
2024-03-10T01:53:42.347Z,30.73
2024-03-10T01:56:12.689Z,28.97
2024-03-10T01:58:40.188Z,29.33
2024-03-10T02:01:07.510Z,29.57
2024-03-10T02:03:34.349Z,30.40
2024-03-10T02:06:01.572Z,30.27
2024-03-10T02:08:30.093Z,30.83
2024-03-10T02:10:57.050Z,31.40
2024-03-10T02:13:23.771Z,29.83
2024-03-10T02:16:04.094Z,28.67
2024-03-10T02:18:31.474Z,29.23
2024-03-10T02:20:59.119Z,28.00
2024-03-10T02:23:41.272Z,29.13
2024-03-10T02:26:11.378Z,28.63
2024-03-10T02:28:48.142Z,30.90
2024-03-10T02:31:33.431Z,30.57
2024-03-10T02:34:18.953Z,30.63
2024-03-10T02:37:04.308Z,29.27
2024-03-10T02:39:49.979Z,30.03
2024-03-10T02:42:35.108Z,28.17
2024-03-10T02:45:20.354Z,27.40
2024-03-10T02:47:47.272Z,31.17
2024-03-10T02:50:14.152Z,29.40
2024-03-10T02:52:41.152Z,31.10
2024-03-10T02:55:10.043Z,27.93
2024-03-10T02:57:36.774Z,29.67
2024-03-10T03:00:03.719Z,28.73
2024-03-10T03:02:31.348Z,29.77
2024-03-10T03:04:58.314Z,31.37
2024-03-10T03:07:25.074Z,30.47
2024-03-10T03:09:51.812Z,29.67
2024-03-10T03:12:18.536Z,29.23
2024-03-10T03:14:45.321Z,31.27
2024-03-10T03:17:12.044Z,30.03
2024-03-10T03:19:39.243Z,29.83
2024-03-10T03:22:05.972Z,30.17
2024-03-10T03:24:32.707Z,31.47
2024-03-10T03:26:59.673Z,31.23
2024-03-10T03:29:26.448Z,30.90
2024-03-10T03:31:53.209Z,27.77
2024-03-10T03:34:20.623Z,29.87
2024-03-10T03:36:47.311Z,29.30
2024-03-10T03:39:14.651Z,29.57
2024-03-10T03:41:41.395Z,28.60
2024-03-10T03:44:10.914Z,28.03
2024-03-10T03:46:37.675Z,26.63
2024-03-10T03:49:05.458Z,28.90
2024-03-10T03:51:32.128Z,29.73
2024-03-10T03:53:59.083Z,28.77
2024-03-10T03:56:25.800Z,29.40
2024-03-10T03:58:52.760Z,30.47
2024-03-10T04:01:19.534Z,29.13
2024-03-10T04:03:46.229Z,31.97
2024-03-10T04:06:15.624Z,29.17
2024-03-10T04:08:42.877Z,30.90
2024-03-10T04:11:09.640Z,29.60
2024-03-10T04:13:36.368Z,33.60
2024-03-10T04:16:03.214Z,30.40
2024-03-10T04:18:29.920Z,29.50
2024-03-10T04:20:57.018Z,28.37
2024-03-10T04:23:24.225Z,31.83
2024-03-10T04:25:52.827Z,28.63
2024-03-10T04:28:19.555Z,30.63
2024-03-10T04:30:46.652Z,30.73
2024-03-10T04:33:13.577Z,30.13
2024-03-10T04:35:40.346Z,31.13
2024-03-10T04:38:07.452Z,29.93
2024-03-10T04:40:34.296Z,30.83
2024-03-10T04:43:00.994Z,29.83
2024-03-10T04:45:28.522Z,31.53
2024-03-10T04:47:55.523Z,30.10
2024-03-10T04:50:22.312Z,30.63
2024-03-10T04:52:49.390Z,29.20
2024-03-10T04:55:16.189Z,29.13
2024-03-10T04:57:42.937Z,32.53
2024-03-10T05:00:11.305Z,30.60
2024-03-10T05:02:38.232Z,32.27
2024-03-10T05:05:05.444Z,32.00
2024-03-10T05:07:32.196Z,31.37
2024-03-10T05:09:59.580Z,30.60
2024-03-10T05:12:26.342Z,31.30
2024-03-10T05:14:53.057Z,30.53
2024-03-10T05:17:19.738Z,29.03
2024-03-10T05:19:46.573Z,32.60
2024-03-10T05:22:14.026Z,30.23
2024-03-10T05:24:43.966Z,31.57
2024-03-10T05:27:11.056Z,32.07
2024-03-10T05:29:38.082Z,30.43
2024-03-10T05:32:05.757Z,32.07
2024-03-10T05:34:40.662Z,31.67
2024-03-10T05:37:07.364Z,33.97
2024-03-10T05:39:33.997Z,30.97
2024-03-10T05:42:00.913Z,30.23
2024-03-10T05:44:27.853Z,32.97
2024-03-10T05:46:54.789Z,31.70
2024-03-10T05:49:22.050Z,32.70
2024-03-10T05:51:49.149Z,31.17
2024-03-10T05:54:15.965Z,30.23
2024-03-10T05:56:42.601Z,33.27
2024-03-10T05:59:10.695Z,29.87
2024-03-10T06:01:37.533Z,29.10
2024-03-10T06:04:04.476Z,32.77
2024-03-10T06:06:32.040Z,32.37
2024-03-10T06:08:58.719Z,31.73
2024-03-10T06:11:25.468Z,30.73
2024-03-10T06:13:52.207Z,30.23
2024-03-10T06:16:22.177Z,32.60
2024-03-10T06:18:59.248Z,30.33
2024-03-10T06:21:46.124Z,30.93
2024-03-10T06:24:32.277Z,31.20
2024-03-10T06:27:02.183Z,32.03
2024-03-10T06:29:29.059Z,32.43
2024-03-10T06:31:59.986Z,33.23
2024-03-10T06:34:26.997Z,33.17
2024-03-10T06:36:53.717Z,31.70
2024-03-10T06:39:20.868Z,32.97
2024-03-10T06:41:48.314Z,29.83
2024-03-10T06:44:16.434Z,34.00
2024-03-10T06:46:43.765Z,30.30
2024-03-10T06:49:10.500Z,32.17
2024-03-10T06:51:37.233Z,34.07
2024-03-10T06:54:04.987Z,31.50
2024-03-10T06:56:31.975Z,34.00
2024-03-10T06:58:58.909Z,32.80
2024-03-10T07:01:25.695Z,32.40
2024-03-10T07:03:53.841Z,32.17
2024-03-10T07:06:22.669Z,31.93
2024-03-10T07:08:50.581Z,31.93
2024-03-10T07:11:17.457Z,30.40
2024-03-10T07:13:44.250Z,30.63
2024-03-10T07:16:10.940Z,33.00
2024-03-10T07:18:38.224Z,32.93
2024-03-10T07:21:06.583Z,34.53
2024-03-10T07:23:33.503Z,32.20
2024-03-10T07:26:01.832Z,32.63
2024-03-10T07:28:28.657Z,30.67
2024-03-10T07:30:55.474Z,32.33
2024-03-10T07:33:22.592Z,33.43
2024-03-10T07:35:49.602Z,32.90
2024-03-10T07:38:16.902Z,35.13
2024-03-10T07:40:43.806Z,32.17
2024-03-10T07:43:10.565Z,33.30
2024-03-10T07:45:37.756Z,31.60
2024-03-10T07:48:06.696Z,34.83
2024-03-10T07:50:33.827Z,32.80
2024-03-10T07:53:00.801Z,33.33
2024-03-10T07:55:33.388Z,31.37
2024-03-10T07:58:00.267Z,34.13
2024-03-10T08:00:27.674Z,31.00
2024-03-10T08:02:55.105Z,31.27
2024-03-10T08:05:22.565Z,34.67
2024-03-10T08:07:50.962Z,32.00
2024-03-10T08:10:18.781Z,42.77
2024-03-10T08:12:47.045Z,36.83
2024-03-10T08:15:14.616Z,30.53
2024-03-10T08:17:42.763Z,30.83
2024-03-10T08:20:14.988Z,30.93
2024-03-10T08:22:43.033Z,31.43
2024-03-10T08:25:10.801Z,32.53
2024-03-10T08:27:37.659Z,34.50
2024-03-10T08:30:05.916Z,31.83
2024-03-10T08:32:32.982Z,31.03
2024-03-10T08:34:59.833Z,32.10
2024-03-10T08:37:29.153Z,32.33
2024-03-10T08:39:55.916Z,32.70
2024-03-10T08:42:25.794Z,31.70
2024-03-10T08:44:52.569Z,30.87
2024-03-10T08:47:19.397Z,31.00
2024-03-10T08:49:46.191Z,31.63
2024-03-10T08:52:13.523Z,32.83
2024-03-10T08:54:40.258Z,33.87
2024-03-10T08:57:07.060Z,30.77
2024-03-10T08:59:34.052Z,30.80
2024-03-10T09:02:02.982Z,32.30
2024-03-10T09:04:29.879Z,32.47
2024-03-10T09:06:56.591Z,31.93
2024-03-10T09:09:23.543Z,30.97
2024-03-10T09:11:50.441Z,30.77
2024-03-10T09:14:19.939Z,29.40
2024-03-10T09:16:47.084Z,31.93
2024-03-10T09:19:15.428Z,29.30
2024-03-10T09:21:43.668Z,31.37
2024-03-10T09:24:11.570Z,32.73
2024-03-10T09:26:38.483Z,29.33
2024-03-10T09:29:07.315Z,31.90
2024-03-10T09:31:34.055Z,29.33
2024-03-10T09:34:00.907Z,32.57
2024-03-10T09:36:28.173Z,29.10
2024-03-10T09:38:55.391Z,29.20
2024-03-10T09:41:22.389Z,28.27
2024-03-10T09:43:52.487Z,28.27
2024-03-10T09:46:19.344Z,30.60
2024-03-10T09:48:46.414Z,30.17
2024-03-10T09:51:14.703Z,29.40
2024-03-10T09:53:42.029Z,29.50
2024-03-10T09:56:13.789Z,27.57
2024-03-10T09:59:01.245Z,30.27
2024-03-10T10:01:29.649Z,27.40
2024-03-10T10:04:02.691Z,28.73
2024-03-10T10:06:32.560Z,27.90
2024-03-10T10:09:08.429Z,29.27
2024-03-10T10:11:35.585Z,27.00
2024-03-10T10:14:16.884Z,27.20
2024-03-10T10:16:57.696Z,26.93
2024-03-10T10:19:28.607Z,29.00
2024-03-10T10:21:55.489Z,28.47
2024-03-10T10:24:22.752Z,27.03
2024-03-10T10:27:05.842Z,27.40
2024-03-10T10:29:50.439Z,26.93
2024-03-10T10:32:21.721Z,28.47
2024-03-10T10:34:49.254Z,26.47
2024-03-10T10:37:15.954Z,26.40
2024-03-10T10:39:42.703Z,26.87
2024-03-10T10:42:15.487Z,25.50
2024-03-10T10:44:48.057Z,26.50
2024-03-10T10:47:16.125Z,26.00
2024-03-10T10:49:42.840Z,25.23
2024-03-10T10:52:13.027Z,25.90
2024-03-10T10:54:41.953Z,26.80
2024-03-10T10:57:10.033Z,27.53
2024-03-10T10:59:38.025Z,27.27
2024-03-10T11:02:07.833Z,25.90
2024-03-10T11:04:38.255Z,26.17
2024-03-10T11:07:06.617Z,28.60
2024-03-10T11:09:33.332Z,26.80
2024-03-10T11:12:17.855Z,24.50
2024-03-10T11:14:48.105Z,28.20
2024-03-10T11:17:19.398Z,28.53
2024-03-10T11:19:51.035Z,28.07
2024-03-10T11:22:29.306Z,28.10
2024-03-10T11:25:17.675Z,27.67
2024-03-10T11:27:46.691Z,28.77
2024-03-10T11:30:41.463Z,27.90
2024-03-10T11:33:09.325Z,26.13
2024-03-10T11:35:36.736Z,26.77
2024-03-10T11:38:05.391Z,27.53
2024-03-10T11:40:32.332Z,27.97
2024-03-10T11:43:02.217Z,26.77
2024-03-10T11:45:31.866Z,29.53
2024-03-10T11:47:58.760Z,25.67
2024-03-10T11:50:26.627Z,25.70
2024-03-10T11:52:53.505Z,27.30
2024-03-10T11:55:21.639Z,27.37
2024-03-10T11:57:54.836Z,27.03
2024-03-10T12:00:27.625Z,26.77
2024-03-10T12:02:55.540Z,25.30
2024-03-10T12:05:23.793Z,27.13
2024-03-10T12:07:55.853Z,25.73
2024-03-10T12:10:25.548Z,25.43
2024-03-10T12:12:52.866Z,23.60
2024-03-10T12:15:25.384Z,26.30
2024-03-10T12:17:53.822Z,26.07
2024-03-10T12:20:22.038Z,23.87
2024-03-10T12:22:49.783Z,25.63
2024-03-10T12:25:19.313Z,25.57
2024-03-10T12:27:48.809Z,25.70
2024-03-10T12:30:15.807Z,25.63
2024-03-10T12:32:49.615Z,24.17
2024-03-10T12:35:17.349Z,24.97
2024-03-10T12:37:44.085Z,26.33
2024-03-10T12:40:15.972Z,26.67
2024-03-10T12:42:48.357Z,25.53
2024-03-10T12:45:17.312Z,25.60
2024-03-10T12:47:45.537Z,24.47
2024-03-10T12:50:14.114Z,25.40
2024-03-10T12:52:41.155Z,26.27
2024-03-10T12:55:09.242Z,28.23
2024-03-10T12:57:37.636Z,26.53
2024-03-10T13:00:30.261Z,26.43
2024-03-10T13:02:59.249Z,26.20
2024-03-10T13:05:28.957Z,27.90
2024-03-10T13:07:58.404Z,26.73
2024-03-10T13:10:26.523Z,25.10
2024-03-10T13:12:53.267Z,25.53
2024-03-10T13:15:21.246Z,27.27
2024-03-10T13:17:48.437Z,25.27
2024-03-10T13:20:18.160Z,26.17
2024-03-10T13:22:46.855Z,25.47
2024-03-10T13:25:15.415Z,24.43
2024-03-10T13:27:46.154Z,27.13
2024-03-10T13:30:15.208Z,26.57
2024-03-10T13:32:42.833Z,30.17
2024-03-10T13:35:10.244Z,27.20
2024-03-10T13:37:37.340Z,24.80
2024-03-10T13:40:06.449Z,25.97
2024-03-10T13:42:33.558Z,26.73
2024-03-10T13:45:00.352Z,26.40
2024-03-10T13:47:27.302Z,26.73
2024-03-10T13:49:54.066Z,25.17
2024-03-10T13:52:21.443Z,26.07
2024-03-10T13:54:51.605Z,29.27
2024-03-10T13:57:22.285Z,27.90
2024-03-10T13:59:50.045Z,25.03
2024-03-10T14:02:16.798Z,24.93
2024-03-10T14:04:44.556Z,25.40
2024-03-10T14:07:12.635Z,24.87
2024-03-10T14:09:39.357Z,24.30
2024-03-10T14:12:08.330Z,19.80
2024-03-10T14:14:40.351Z,25.93
2024-03-10T14:17:08.173Z,27.20
2024-03-10T14:19:35.000Z,25.67
2024-03-10T14:22:01.732Z,24.43
2024-03-10T14:24:28.494Z,25.30
2024-03-10T14:26:57.522Z,25.53
2024-03-10T14:29:25.993Z,26.43
2024-03-10T14:31:53.848Z,24.80
2024-03-10T14:34:20.595Z,26.80
2024-03-10T14:36:47.366Z,24.40
2024-03-10T14:39:14.748Z,24.17
2024-03-10T14:41:41.790Z,24.70
2024-03-10T14:44:11.403Z,24.33
2024-03-10T14:46:38.550Z,22.53
2024-03-10T14:49:05.695Z,23.40
2024-03-10T14:51:37.021Z,23.43
2024-03-10T14:54:04.292Z,22.73
2024-03-10T14:56:31.065Z,24.07
2024-03-10T14:58:57.865Z,23.20
2024-03-10T15:01:28.903Z,21.70
2024-03-10T15:03:58.387Z,22.67
2024-03-10T15:06:26.645Z,22.47
2024-03-10T15:08:58.625Z,23.20
2024-03-10T15:11:25.437Z,22.07
2024-03-10T15:13:52.367Z,21.83
2024-03-10T15:16:20.893Z,21.67
2024-03-10T15:18:47.588Z,19.60
2024-03-10T15:21:14.457Z,21.47
2024-03-10T15:23:41.495Z,20.90
2024-03-10T15:26:08.390Z,21.23
2024-03-10T15:28:35.118Z,21.60
2024-03-10T15:31:02.049Z,21.80
2024-03-10T15:33:29.177Z,20.07
2024-03-10T15:35:56.596Z,21.17
2024-03-10T15:38:23.591Z,22.27
2024-03-10T15:40:50.650Z,21.23
2024-03-10T15:43:18.245Z,20.80
2024-03-10T15:45:47.946Z,21.30
2024-03-10T15:48:14.750Z,23.67
2024-03-10T15:50:44.743Z,21.10
2024-03-10T15:53:12.061Z,21.27
2024-03-10T15:55:39.232Z,21.60
2024-03-10T15:58:07.004Z,20.87
2024-03-10T16:00:34.131Z,21.07
2024-03-10T16:03:11.759Z,25.63
2024-03-10T16:05:53.684Z,20.53
2024-03-10T16:08:23.041Z,19.30
2024-03-10T16:10:50.286Z,19.60
2024-03-10T16:13:26.787Z,21.47
2024-03-10T16:15:53.827Z,21.33
2024-03-10T16:18:20.924Z,20.73
2024-03-10T16:20:49.226Z,22.07
2024-03-10T16:23:16.451Z,20.50
2024-03-10T16:25:43.609Z,20.63
2024-03-10T16:28:10.468Z,21.07
2024-03-10T16:30:37.144Z,21.07
2024-03-10T16:33:04.068Z,24.33
2024-03-10T16:35:31.011Z,26.50
2024-03-10T16:37:58.185Z,25.90
2024-03-10T16:40:25.308Z,26.77
2024-03-10T16:42:52.032Z,27.27
2024-03-10T16:45:19.282Z,25.77
2024-03-10T16:47:49.221Z,30.10
2024-03-10T16:50:24.860Z,26.83
2024-03-10T16:52:53.233Z,30.40
2024-03-10T16:55:24.773Z,27.77
2024-03-10T16:57:54.720Z,24.93
2024-03-10T17:00:21.631Z,27.33
2024-03-10T17:02:48.476Z,28.37
2024-03-10T17:05:16.334Z,29.30
2024-03-10T17:07:43.378Z,29.20
2024-03-10T17:10:10.531Z,27.63
2024-03-10T17:12:38.718Z,31.23
2024-03-10T17:15:16.820Z,28.30
2024-03-10T17:17:44.461Z,30.97
2024-03-10T17:20:17.982Z,33.57
2024-03-10T17:22:44.877Z,28.77
2024-03-10T17:25:13.979Z,30.50
2024-03-10T17:27:41.916Z,28.83
2024-03-10T17:30:09.548Z,29.40
2024-03-10T17:32:37.256Z,33.60
2024-03-10T17:35:04.956Z,30.60
2024-03-10T17:37:31.763Z,31.50
2024-03-10T17:39:58.609Z,36.30
2024-03-10T17:42:31.309Z,27.53
2024-03-10T17:44:58.605Z,27.83
2024-03-10T17:47:25.466Z,28.67
2024-03-10T17:49:52.127Z,30.83
2024-03-10T17:52:18.791Z,27.80
2024-03-10T17:54:45.440Z,30.43
2024-03-10T17:57:12.142Z,31.07
2024-03-10T17:59:40.070Z,28.43
2024-03-10T18:02:06.912Z,29.20
2024-03-10T18:04:37.126Z,27.97
2024-03-10T18:07:08.432Z,27.47
2024-03-10T18:09:35.124Z,27.53
2024-03-10T18:12:02.116Z,27.93
2024-03-10T18:14:30.960Z,28.63
2024-03-10T18:16:59.687Z,26.97
2024-03-10T18:19:26.885Z,21.93
2024-03-10T18:21:55.356Z,30.60
2024-03-10T18:24:22.151Z,30.23
2024-03-10T18:26:48.866Z,26.27
2024-03-10T18:29:16.888Z,27.97
2024-03-10T18:31:43.940Z,23.23
2024-03-10T18:34:11.531Z,26.43
2024-03-10T18:36:39.352Z,28.80
2024-03-10T18:39:09.767Z,29.17
2024-03-10T18:41:37.717Z,18.67
2024-03-10T18:44:05.082Z,26.83
2024-03-10T18:46:32.775Z,23.83
2024-03-10T18:48:59.439Z,26.33
2024-03-10T18:51:26.327Z,26.37
2024-03-10T18:53:53.073Z,28.37
2024-03-10T18:56:20.927Z,25.97
2024-03-10T18:58:47.873Z,26.47
2024-03-10T19:01:17.504Z,24.97
2024-03-10T19:03:48.165Z,26.43
2024-03-10T19:06:17.088Z,25.27
2024-03-10T19:08:45.379Z,24.97
2024-03-10T19:11:12.861Z,25.53
2024-03-10T19:13:40.789Z,26.97
2024-03-10T19:16:09.968Z,25.27
2024-03-10T19:18:36.786Z,24.10
2024-03-10T19:21:04.626Z,26.80
2024-03-10T19:23:31.721Z,26.33
2024-03-10T19:26:00.548Z,26.60
2024-03-10T19:28:27.660Z,20.67
2024-03-10T19:30:55.761Z,27.13
2024-03-10T19:33:23.343Z,20.80
2024-03-10T19:35:50.545Z,24.93
2024-03-10T19:38:17.783Z,23.17
2024-03-10T19:40:44.695Z,22.90
2024-03-10T19:43:13.773Z,24.00
2024-03-10T19:45:42.853Z,26.93
2024-03-10T19:48:10.330Z,25.10
2024-03-10T19:50:37.033Z,23.70
2024-03-10T19:53:03.877Z,24.63
2024-03-10T19:55:30.738Z,22.03
2024-03-10T19:57:58.102Z,23.37
2024-03-10T20:00:25.400Z,22.13
2024-03-10T20:02:52.088Z,20.77
2024-03-10T20:05:19.031Z,21.10
2024-03-10T20:07:52.426Z,22.67
2024-03-10T20:10:21.320Z,22.43
2024-03-10T20:12:50.454Z,20.03
2024-03-10T20:15:17.661Z,22.10
2024-03-10T20:17:49.105Z,19.97
2024-03-10T20:20:22.824Z,22.60
2024-03-10T20:22:50.744Z,14.70
2024-03-10T20:25:19.581Z,20.97
2024-03-10T20:27:46.892Z,17.40
2024-03-10T20:30:15.325Z,20.23
2024-03-10T20:32:42.304Z,23.93
2024-03-10T20:35:12.428Z,20.80
2024-03-10T20:37:42.681Z,20.13
2024-03-10T20:40:12.756Z,20.60
2024-03-10T20:42:40.561Z,21.13
2024-03-10T20:45:13.719Z,20.03
2024-03-10T20:47:42.806Z,20.03
2024-03-10T20:50:10.254Z,20.60
2024-03-10T20:52:37.043Z,20.77
2024-03-10T20:55:04.552Z,22.03
2024-03-10T20:57:31.335Z,18.07
2024-03-10T20:59:59.815Z,19.80
2024-03-10T21:02:27.771Z,19.40
2024-03-10T21:05:04.283Z,20.10
2024-03-10T21:07:50.763Z,20.20
2024-03-10T21:10:20.932Z,20.50
2024-03-10T21:12:47.947Z,19.50
2024-03-10T21:15:15.382Z,19.67
2024-03-10T21:17:42.976Z,20.53
2024-03-10T21:20:12.572Z,20.53
2024-03-10T21:22:40.352Z,21.00
2024-03-10T21:25:07.835Z,20.63
2024-03-10T21:27:34.883Z,21.43
2024-03-10T21:30:01.842Z,20.27
2024-03-10T21:32:29.082Z,20.33
2024-03-10T21:34:55.834Z,19.97
2024-03-10T21:37:22.568Z,21.83
2024-03-10T21:39:49.271Z,19.97
2024-03-10T21:42:15.971Z,18.43
2024-03-10T21:44:43.629Z,19.77
2024-03-10T21:47:10.445Z,20.40
2024-03-10T21:49:38.687Z,21.13
2024-03-10T21:52:05.550Z,18.57
2024-03-10T21:54:32.415Z,19.53
2024-03-10T21:57:00.697Z,16.80
2024-03-10T21:59:27.501Z,19.40
2024-03-10T22:01:54.204Z,21.63
2024-03-10T22:04:21.027Z,18.97
2024-03-10T22:06:47.688Z,20.33
2024-03-10T22:09:15.699Z,18.87
2024-03-10T22:11:42.501Z,19.90
2024-03-10T22:14:09.292Z,24.57
2024-03-10T22:16:36.072Z,18.50
2024-03-10T22:19:03.019Z,21.20
2024-03-10T22:21:30.558Z,22.73
2024-03-10T22:23:57.268Z,19.97
2024-03-10T22:26:24.056Z,20.00
2024-03-10T22:28:51.911Z,19.63
2024-03-10T22:31:18.533Z,19.23
2024-03-10T22:33:45.207Z,22.03
2024-03-10T22:36:11.898Z,18.67
2024-03-10T22:38:38.608Z,20.03
2024-03-10T22:41:05.754Z,18.87
2024-03-10T22:43:34.834Z,19.27
2024-03-10T22:46:02.661Z,18.77
2024-03-10T22:48:29.374Z,21.97
2024-03-10T22:50:56.119Z,18.83
2024-03-10T22:53:22.837Z,19.53
2024-03-10T22:55:49.479Z,18.83
2024-03-10T22:58:17.534Z,18.40
2024-03-10T23:00:47.170Z,19.60
2024-03-10T23:03:16.408Z,19.47
2024-03-10T23:05:44.571Z,19.20
2024-03-10T23:08:12.539Z,21.10
2024-03-10T23:10:40.903Z,19.70
2024-03-10T23:13:09.499Z,21.97
2024-03-10T23:15:36.933Z,19.33
2024-03-10T23:18:04.031Z,19.40
2024-03-10T23:20:31.626Z,20.33
2024-03-10T23:22:59.020Z,19.30
2024-03-10T23:25:26.954Z,21.13
2024-03-10T23:27:54.884Z,19.67
2024-03-10T23:30:22.287Z,20.40
2024-03-10T23:32:50.717Z,20.83
2024-03-10T23:35:18.492Z,19.27
2024-03-10T23:37:45.401Z,19.23
2024-03-10T23:40:12.706Z,19.57
2024-03-10T23:42:43.595Z,16.43
2024-03-10T23:45:14.235Z,21.17
2024-03-10T23:47:42.875Z,19.67
2024-03-10T23:50:12.185Z,19.63
2024-03-10T23:52:40.322Z,18.87
2024-03-10T23:55:08.191Z,19.17
2024-03-10T23:57:35.169Z,21.87
